Time;durP1;ratioP1;P1;durP2;ratioP2;P2;SDS_P1;SDS_P2;PMS_P1;PMS_P2;Temp;Humidity;BMP_temperature;BMP_pressure;BME280_temperature;BME280_humidity;BME280_pressure;Samples;Min_cycle;Max_cycle;Signal;HPM_P1;HPM_P2
2022/01/03 00:01:31;;;;;;;2.70;2.50;;;;;;;;;;5081071;28;25047;-54
2022/01/03 00:03:56;;;;;;;3.15;2.50;;;;;;;;;;5072663;28;24483;-57
2022/01/03 00:06:22;;;;;;;5.13;2.57;;;;;;;;;;5082513;28;24803;-54
2022/01/03 00:08:47;;;;;;;2.50;2.20;;;;;;;;;;5077771;28;24536;-54
2022/01/03 00:11:13;;;;;;;2.73;2.53;;;;;;;;;;5081764;28;25080;-54
2022/01/03 00:13:41;;;;;;;3.05;2.40;;;;;;;;;;5079089;28;24439;-54
2022/01/03 00:16:06;;;;;;;2.77;2.27;;;;;;;;;;5069563;28;25092;-55
2022/01/03 00:18:31;;;;;;;2.40;2.20;;;;;;;;;;5079225;28;24422;-55
2022/01/03 00:20:58;;;;;;;2.80;2.33;;;;;;;;;;5080464;28;24407;-56
2022/01/03 00:23:28;;;;;;;2.30;2.10;;;;;;;;;;5080124;28;24521;-55
2022/01/03 00:25:57;;;;;;;2.90;2.15;;;;;;;;;;5077733;28;24458;-55
2022/01/03 00:28:23;;;;;;;2.70;2.10;;;;;;;;;;5081240;28;24433;-55
2022/01/03 00:30:53;;;;;;;2.40;2.20;;;;;;;;;;5070902;28;24433;-55
2022/01/03 00:33:19;;;;;;;6.63;2.58;;;;;;;;;;5070580;28;24425;-55
2022/01/03 00:35:44;;;;;;;2.60;2.40;;;;;;;;;;5072723;28;24776;-55
2022/01/03 00:38:11;;;;;;;2.93;2.20;;;;;;;;;;5075018;28;24556;-55
2022/01/03 00:40:36;;;;;;;2.50;2.00;;;;;;;;;;5080731;28;24418;-55
2022/01/03 00:43:02;;;;;;;3.20;2.30;;;;;;;;;;5082651;28;24551;-55
2022/01/03 00:45:27;;;;;;;2.90;2.10;;;;;;;;;;5083222;28;25009;-56
2022/01/03 00:47:53;;;;;;;3.10;2.37;;;;;;;;;;5077264;28;24445;-56
2022/01/03 00:50:19;;;;;;;2.30;2.10;;;;;;;;;;5077855;28;24499;-55
2022/01/03 00:52:45;;;;;;;3.50;2.28;;;;;;;;;;5071927;28;24407;-55
2022/01/03 00:55:10;;;;;;;3.00;2.30;;;;;;;;;;5081939;28;25096;-55
2022/01/03 00:57:56;;;;;;;3.20;2.20;;;;;;;;;;5079588;28;24413;-55
2022/01/03 01:00:21;;;;;;;3.53;2.35;;;;;;;;;;5068800;28;24430;-56
2022/01/03 01:02:53;;;;;;;4.13;2.40;;;;;;;;;;5072616;28;24475;-55
2022/01/03 01:05:19;;;;;;;2.70;2.30;;;;;;;;;;5082186;28;24998;-56
2022/01/03 01:07:45;;;;;;;2.30;2.10;;;;;;;;;;5080034;28;24450;-55
2022/01/03 01:10:10;;;;;;;2.60;2.40;;;;;;;;;;5080309;28;24456;-55
2022/01/03 01:12:36;;;;;;;3.65;2.30;;;;;;;;;;5076415;28;24414;-55
2022/01/03 01:15:01;;;;;;;2.50;1.90;;;;;;;;;;5080031;28;26259;-55
2022/01/03 01:17:27;;;;;;;2.40;2.20;;;;;;;;;;5075744;28;24479;-55
2022/01/03 01:19:53;;;;;;;2.30;2.10;;;;;;;;;;5080165;28;24418;-55
2022/01/03 01:22:21;;;;;;;3.40;2.10;;;;;;;;;;5078108;28;25088;-55
2022/01/03 01:25:10;;;;;;;2.45;2.00;;;;;;;;;;5071170;28;24522;-55
2022/01/03 01:27:50;;;;;;;3.67;2.00;;;;;;;;;;5082455;28;24521;-55
2022/01/03 01:30:16;;;;;;;2.00;1.80;;;;;;;;;;5080483;28;25138;-54
2022/01/03 01:32:42;;;;;;;3.25;2.10;;;;;;;;;;5080133;28;25010;-54
2022/01/03 01:35:08;;;;;;;3.00;1.83;;;;;;;;;;5074710;28;24556;-55
2022/01/03 01:37:34;;;;;;;2.10;1.80;;;;;;;;;;5068143;28;24514;-55
2022/01/03 01:39:59;;;;;;;3.00;2.00;;;;;;;;;;5081639;28;24502;-55
2022/01/03 01:42:25;;;;;;;1.60;1.50;;;;;;;;;;5080195;28;24460;-55
2022/01/03 01:44:50;;;;;;;2.25;1.40;;;;;;;;;;5077313;28;24410;-55
2022/01/03 01:47:16;;;;;;;1.53;1.20;;;;;;;;;;5080554;28;25025;-55
2022/01/03 01:49:45;;;;;;;1.75;1.40;;;;;;;;;;5082043;28;24406;-56
2022/01/03 01:52:18;;;;;;;1.30;1.20;;;;;;;;;;5079096;28;24414;-56
2022/01/03 01:54:50;;;;;;;1.50;1.10;;;;;;;;;;5075576;28;24795;-55
2022/01/03 01:57:15;;;;;;;1.13;0.90;;;;;;;;;;5072914;28;24418;-56
2022/01/03 01:59:44;;;;;;;1.90;1.00;;;;;;;;;;5079295;28;24410;-56
2022/01/03 02:02:10;;;;;;;1.77;0.90;;;;;;;;;;5076917;28;24487;-55
2022/01/03 02:04:48;;;;;;;1.20;0.80;;;;;;;;;;5080311;28;24418;-56
2022/01/03 02:07:31;;;;;;;1.20;0.60;;;;;;;;;;5077139;28;24460;-55
2022/01/03 02:10:04;;;;;;;1.40;0.90;;;;;;;;;;5070029;28;24517;-55
2022/01/03 02:12:30;;;;;;;1.40;0.50;;;;;;;;;;5077225;28;25992;-55
2022/01/03 02:14:57;;;;;;;1.10;0.60;;;;;;;;;;5077992;28;24421;-55
2022/01/03 02:17:23;;;;;;;0.50;0.50;;;;;;;;;;5079563;28;24471;-55
2022/01/03 02:20:03;;;;;;;0.90;0.70;;;;;;;;;;5080238;28;24507;-55
2022/01/03 02:22:28;;;;;;;1.13;0.50;;;;;;;;;;5076174;28;24466;-55
2022/01/03 02:24:53;;;;;;;0.60;0.50;;;;;;;;;;5073676;28;24446;-55
2022/01/03 02:27:18;;;;;;;0.50;0.50;;;;;;;;;;5075691;28;24509;-55
2022/01/03 02:29:43;;;;;;;0.70;0.40;;;;;;;;;;5074804;28;24973;-55
2022/01/03 02:32:09;;;;;;;0.70;0.40;;;;;;;;;;5077314;28;24426;-54
2022/01/03 02:34:34;;;;;;;0.90;0.40;;;;;;;;;;5081332;28;24530;-55
2022/01/03 02:36:59;;;;;;;0.50;0.50;;;;;;;;;;5075754;28;24535;-55
2022/01/03 02:39:25;;;;;;;0.50;0.40;;;;;;;;;;5073437;28;24571;-55
2022/01/03 02:41:50;;;;;;;0.90;0.50;;;;;;;;;;5081215;28;24519;-55
2022/01/03 02:44:17;;;;;;;0.50;0.40;;;;;;;;;;5084870;28;24422;-55
2022/01/03 02:46:43;;;;;;;0.60;0.40;;;;;;;;;;5085658;28;24414;-55
2022/01/03 02:49:08;;;;;;;0.80;0.40;;;;;;;;;;5083347;28;24995;-55
2022/01/03 02:51:33;;;;;;;0.60;0.50;;;;;;;;;;5083304;28;24476;-55
2022/01/03 02:53:58;;;;;;;0.50;0.40;;;;;;;;;;5079864;28;24418;-55
2022/01/03 02:56:23;;;;;;;1.10;0.50;;;;;;;;;;5085556;28;24415;-55
2022/01/03 02:58:48;;;;;;;1.40;0.40;;;;;;;;;;5082818;28;24403;-55
2022/01/03 03:01:13;;;;;;;1.20;0.50;;;;;;;;;;5079400;28;24412;-55
2022/01/03 03:03:39;;;;;;;1.70;0.40;;;;;;;;;;5081898;28;24950;-55
2022/01/03 03:06:04;;;;;;;1.10;0.50;;;;;;;;;;5085393;28;24428;-56
2022/01/03 03:08:29;;;;;;;0.70;0.50;;;;;;;;;;5084314;28;24413;-56
2022/01/03 03:10:54;;;;;;;0.80;0.60;;;;;;;;;;5081690;28;24991;-56
2022/01/03 03:13:20;;;;;;;0.73;0.60;;;;;;;;;;5079358;28;24509;-56
2022/01/03 03:15:45;;;;;;;2.20;0.40;;;;;;;;;;5079885;28;24912;-56
2022/01/03 03:18:10;;;;;;;1.20;0.40;;;;;;;;;;5083364;28;24406;-55
2022/01/03 03:20:35;;;;;;;0.80;0.50;;;;;;;;;;5043713;28;24419;-56
2022/01/03 03:23:01;;;;;;;1.70;0.50;;;;;;;;;;5072442;28;24425;-55
2022/01/03 03:25:27;;;;;;;0.70;0.50;;;;;;;;;;5078548;28;24437;-55
2022/01/03 03:27:57;;;;;;;0.90;0.50;;;;;;;;;;5074116;28;24411;-56
2022/01/03 03:30:24;;;;;;;0.80;0.50;;;;;;;;;;5083530;28;24426;-55
2022/01/03 03:32:52;;;;;;;1.30;0.60;;;;;;;;;;5079872;28;24940;-56
2022/01/03 03:35:18;;;;;;;1.30;0.60;;;;;;;;;;5078574;28;24475;-55
2022/01/03 03:37:43;;;;;;;0.80;0.50;;;;;;;;;;5078787;28;24438;-56
2022/01/03 03:40:09;;;;;;;0.60;0.50;;;;;;;;;;5077432;28;24571;-56
2022/01/03 03:42:34;;;;;;;1.50;0.77;;;;;;;;;;5083787;28;24899;-55
2022/01/03 03:44:59;;;;;;;1.50;0.70;;;;;;;;;;5081841;28;25307;-59
2022/01/03 03:47:24;;;;;;;2.00;0.90;;;;;;;;;;5080677;28;25698;-55
2022/01/03 03:49:50;;;;;;;1.30;0.90;;;;;;;;;;5076672;28;24418;-56
2022/01/03 03:52:15;;;;;;;2.90;0.83;;;;;;;;;;5080456;28;24940;-56
2022/01/03 03:54:40;;;;;;;2.30;0.60;;;;;;;;;;5080770;28;24414;-56
2022/01/03 03:57:06;;;;;;;1.83;0.70;;;;;;;;;;5084038;28;24413;-56
2022/01/03 03:59:31;;;;;;;1.40;0.80;;;;;;;;;;5081187;28;24559;-55
2022/01/03 04:01:57;;;;;;;1.60;0.80;;;;;;;;;;5063707;28;24937;-56
2022/01/03 04:04:23;;;;;;;1.92;0.60;;;;;;;;;;5072150;28;24571;-55
2022/01/03 04:06:48;;;;;;;1.50;0.60;;;;;;;;;;5075729;28;24486;-55
2022/01/03 04:09:13;;;;;;;1.10;0.80;;;;;;;;;;5066070;28;24546;-55
2022/01/03 04:11:38;;;;;;;2.30;1.00;;;;;;;;;;5077230;28;24848;-55
2022/01/03 04:14:04;;;;;;;2.63;0.73;;;;;;;;;;5076977;28;24414;-56
2022/01/03 04:16:29;;;;;;;0.80;0.67;;;;;;;;;;5073959;28;24504;-56
2022/01/03 04:18:54;;;;;;;0.80;0.70;;;;;;;;;;5078250;28;24951;-56
2022/01/03 04:21:20;;;;;;;2.28;0.90;;;;;;;;;;5076521;28;24473;-55
2022/01/03 04:23:45;;;;;;;1.00;0.70;;;;;;;;;;5076052;28;24509;-55
2022/01/03 04:26:11;;;;;;;1.20;0.70;;;;;;;;;;5078198;28;24847;-56
2022/01/03 04:28:36;;;;;;;0.77;0.77;;;;;;;;;;5080510;28;24433;-56
2022/01/03 04:31:01;;;;;;;1.50;0.80;;;;;;;;;;5083575;28;24454;-55
2022/01/03 04:33:27;;;;;;;0.70;0.70;;;;;;;;;;5082692;28;24467;-56
2022/01/03 04:35:52;;;;;;;0.53;0.50;;;;;;;;;;5073941;28;24429;-56
2022/01/03 04:38:18;;;;;;;0.70;0.70;;;;;;;;;;5076202;28;24468;-56
2022/01/03 04:40:43;;;;;;;1.60;0.85;;;;;;;;;;5074404;28;25274;-55
2022/01/03 04:43:09;;;;;;;1.10;0.80;;;;;;;;;;5074365;28;24448;-54
2022/01/03 04:45:34;;;;;;;1.00;0.73;;;;;;;;;;5083174;28;24922;-55
2022/01/03 04:47:59;;;;;;;1.52;1.42;;;;;;;;;;5081543;28;25405;-55
2022/01/03 04:50:24;;;;;;;1.10;1.00;;;;;;;;;;5078846;28;24462;-55
2022/01/03 04:52:49;;;;;;;0.97;0.90;;;;;;;;;;5081329;28;25040;-55
2022/01/03 04:55:14;;;;;;;0.90;0.90;;;;;;;;;;5072965;28;24510;-55
2022/01/03 04:57:39;;;;;;;1.27;0.90;;;;;;;;;;5069517;28;24444;-56
2022/01/03 05:00:06;;;;;;;1.45;1.00;;;;;;;;;;5080022;28;24777;-56
2022/01/03 05:02:31;;;;;;;1.10;0.80;;;;;;;;;;5077736;28;24453;-55
2022/01/03 05:04:56;;;;;;;0.90;0.70;;;;;;;;;;5079768;28;24422;-55
2022/01/03 05:07:21;;;;;;;1.40;0.90;;;;;;;;;;5072429;28;24430;-55
2022/01/03 05:09:46;;;;;;;2.17;1.00;;;;;;;;;;5079639;28;24518;-55
2022/01/03 05:12:11;;;;;;;1.30;0.90;;;;;;;;;;5076867;28;24694;-55
2022/01/03 05:14:37;;;;;;;1.30;0.90;;;;;;;;;;5071804;28;24746;-55
2022/01/03 05:17:02;;;;;;;1.00;0.90;;;;;;;;;;5072026;28;24406;-56
2022/01/03 05:19:27;;;;;;;2.60;1.00;;;;;;;;;;5066738;28;24991;-55
2022/01/03 05:21:52;;;;;;;1.08;0.90;;;;;;;;;;5067963;28;24433;-55
2022/01/03 05:24:18;;;;;;;1.20;1.00;;;;;;;;;;5078718;28;24453;-55
2022/01/03 05:26:43;;;;;;;1.00;0.90;;;;;;;;;;5073641;28;24967;-55
2022/01/03 05:29:08;;;;;;;1.20;1.10;;;;;;;;;;5074181;28;24457;-54
2022/01/03 05:31:33;;;;;;;1.13;1.03;;;;;;;;;;5074743;28;24468;-55
2022/01/03 05:34:00;;;;;;;1.33;1.00;;;;;;;;;;5074607;28;25419;-55
2022/01/03 05:36:25;;;;;;;1.58;0.80;;;;;;;;;;5078541;28;24422;-55
2022/01/03 05:38:51;;;;;;;2.33;0.90;;;;;;;;;;5073934;28;24466;-55
2022/01/03 05:41:16;;;;;;;1.20;1.00;;;;;;;;;;5073330;28;24480;-55
2022/01/03 05:43:41;;;;;;;3.53;1.10;;;;;;;;;;5074009;28;24455;-55
2022/01/03 05:46:06;;;;;;;1.00;0.90;;;;;;;;;;5075582;28;24433;-55
2022/01/03 05:48:31;;;;;;;1.40;1.23;;;;;;;;;;5074367;28;25014;-55
2022/01/03 05:50:56;;;;;;;2.35;1.17;;;;;;;;;;5073944;28;25000;-55
2022/01/03 05:53:22;;;;;;;2.20;1.10;;;;;;;;;;5069893;28;24434;-55
2022/01/03 05:55:47;;;;;;;2.50;1.10;;;;;;;;;;5074131;28;24732;-54
2022/01/03 05:58:15;;;;;;;2.43;1.00;;;;;;;;;;5079094;28;24414;-55
2022/01/03 06:00:41;;;;;;;1.60;1.10;;;;;;;;;;5074981;28;24426;-55
2022/01/03 06:03:06;;;;;;;3.27;1.60;;;;;;;;;;5075901;28;24479;-55
2022/01/03 06:05:41;;;;;;;1.85;1.08;;;;;;;;;;5072866;28;24433;-55
2022/01/03 06:08:06;;;;;;;1.90;1.40;;;;;;;;;;5076845;28;24425;-56
2022/01/03 06:10:31;;;;;;;2.50;1.50;;;;;;;;;;5078087;28;24426;-55
2022/01/03 06:12:56;;;;;;;2.70;1.23;;;;;;;;;;5070800;28;24406;-55
2022/01/03 06:15:24;;;;;;;3.00;1.50;;;;;;;;;;5071885;28;24419;-55
2022/01/03 06:17:49;;;;;;;3.53;1.50;;;;;;;;;;5075476;28;25247;-56
2022/01/03 06:20:15;;;;;;;3.08;1.50;;;;;;;;;;5083160;28;24426;-55
2022/01/03 06:22:40;;;;;;;4.30;1.50;;;;;;;;;;5084823;28;24426;-55
2022/01/03 06:25:06;;;;;;;2.40;1.30;;;;;;;;;;5080018;28;25370;-55
2022/01/03 06:27:31;;;;;;;3.00;1.50;;;;;;;;;;5078592;28;25028;-55
2022/01/03 06:29:56;;;;;;;1.90;1.30;;;;;;;;;;5079521;28;24430;-55
2022/01/03 06:32:21;;;;;;;3.30;1.10;;;;;;;;;;5083509;28;24422;-55
2022/01/03 06:34:47;;;;;;;3.15;1.50;;;;;;;;;;5082169;28;24822;-55
2022/01/03 06:37:12;;;;;;;3.80;1.40;;;;;;;;;;5085932;28;24421;-55
2022/01/03 06:39:37;;;;;;;2.55;1.52;;;;;;;;;;5083448;28;24528;-55
2022/01/03 06:42:02;;;;;;;2.90;1.40;;;;;;;;;;5079747;28;24429;-55
2022/01/03 06:44:27;;;;;;;3.33;1.50;;;;;;;;;;5082743;28;25026;-54
2022/01/03 06:46:52;;;;;;;1.50;1.30;;;;;;;;;;5081196;28;25373;-56
2022/01/03 06:49:17;;;;;;;2.55;1.90;;;;;;;;;;5076630;28;25265;-55
2022/01/03 06:51:43;;;;;;;2.80;1.48;;;;;;;;;;5076958;28;24452;-55
2022/01/03 06:54:11;;;;;;;2.03;1.30;;;;;;;;;;5077502;28;24455;-56
2022/01/03 06:56:36;;;;;;;1.95;1.30;;;;;;;;;;5079663;28;24418;-56
2022/01/03 06:59:02;;;;;;;3.30;1.38;;;;;;;;;;5079244;28;24429;-56
2022/01/03 07:01:27;;;;;;;2.72;1.70;;;;;;;;;;5080415;28;24418;-56
2022/01/03 07:03:52;;;;;;;3.47;1.50;;;;;;;;;;5063256;28;24445;-55
2022/01/03 07:06:18;;;;;;;2.70;1.37;;;;;;;;;;5079265;28;24507;-55
2022/01/03 07:08:43;;;;;;;3.63;1.63;;;;;;;;;;5071293;28;24536;-55
2022/01/03 07:11:08;;;;;;;2.53;1.50;;;;;;;;;;5067070;28;24433;-55
2022/01/03 07:13:42;;;;;;;2.60;1.50;;;;;;;;;;5082251;28;24560;-55
2022/01/03 07:18:57;;;;;;;2.65;1.30;;;;;;;;;;5069284;28;24444;-55
2022/01/03 07:21:23;;;;;;;1.83;1.48;;;;;;;;;;5075067;28;24448;-55
2022/01/03 07:23:48;;;;;;;3.30;1.60;;;;;;;;;;5079718;28;24521;-55
2022/01/03 07:26:13;;;;;;;2.80;1.30;;;;;;;;;;5079478;28;25028;-55
2022/01/03 07:28:38;;;;;;;3.13;1.50;;;;;;;;;;5067008;28;24453;-55
2022/01/03 07:31:04;;;;;;;3.70;1.70;;;;;;;;;;5080258;28;24490;-55
2022/01/03 07:33:29;;;;;;;4.07;1.60;;;;;;;;;;5079346;28;24436;-54
2022/01/03 07:35:54;;;;;;;3.53;1.40;;;;;;;;;;5078885;28;24434;-54
2022/01/03 07:38:19;;;;;;;1.50;1.40;;;;;;;;;;5078688;28;24441;-55
2022/01/03 07:40:44;;;;;;;3.80;1.65;;;;;;;;;;5076448;28;24475;-54
2022/01/03 07:43:09;;;;;;;3.00;1.37;;;;;;;;;;5080109;28;24499;-55
2022/01/03 07:45:34;;;;;;;3.53;1.30;;;;;;;;;;5071521;28;24533;-55
2022/01/03 07:47:59;;;;;;;1.88;1.48;;;;;;;;;;5077051;28;24475;-55
2022/01/03 07:50:25;;;;;;;1.85;1.60;;;;;;;;;;5074560;28;24438;-55
2022/01/03 07:52:50;;;;;;;2.80;1.40;;;;;;;;;;5078552;28;24600;-55
2022/01/03 07:55:16;;;;;;;2.00;1.30;;;;;;;;;;5078509;28;24531;-55
2022/01/03 07:57:42;;;;;;;2.53;1.50;;;;;;;;;;5076807;28;24744;-55
2022/01/03 08:00:09;;;;;;;2.90;1.10;;;;;;;;;;5076849;28;24480;-55
2022/01/03 08:02:35;;;;;;;3.95;1.48;;;;;;;;;;5078918;28;24878;-56
2022/01/03 08:05:00;;;;;;;2.80;1.30;;;;;;;;;;5076579;28;25080;-55
2022/01/03 08:07:25;;;;;;;2.47;1.00;;;;;;;;;;5075667;28;24421;-55
2022/01/03 08:09:50;;;;;;;1.90;1.20;;;;;;;;;;5070599;28;24428;-55
2022/01/03 08:12:16;;;;;;;4.40;1.77;;;;;;;;;;5064847;28;25267;-55
2022/01/03 08:14:42;;;;;;;2.28;1.40;;;;;;;;;;5076350;28;25347;-55
2022/01/03 08:17:07;;;;;;;3.67;1.40;;;;;;;;;;5073502;28;24460;-55
2022/01/03 08:19:32;;;;;;;3.40;1.30;;;;;;;;;;5079391;28;24403;-55
2022/01/03 08:21:57;;;;;;;2.50;1.40;;;;;;;;;;5077157;28;26445;-55
2022/01/03 08:24:22;;;;;;;2.58;1.30;;;;;;;;;;5069547;28;24601;-55
2022/01/03 08:26:49;;;;;;;6.10;1.70;;;;;;;;;;5075248;28;24422;-56
2022/01/03 08:29:14;;;;;;;2.20;1.33;;;;;;;;;;5070652;28;24726;-55
2022/01/03 08:31:39;;;;;;;3.90;1.60;;;;;;;;;;5079442;28;24430;-56
2022/01/03 08:34:05;;;;;;;2.22;1.35;;;;;;;;;;5071336;28;24414;-56
2022/01/03 08:36:30;;;;;;;4.00;1.50;;;;;;;;;;5075926;28;25102;-56
2022/01/03 08:38:55;;;;;;;3.25;1.67;;;;;;;;;;5069338;28;24430;-55
2022/01/03 08:41:20;;;;;;;3.17;1.67;;;;;;;;;;5076179;28;24430;-56
2022/01/03 08:43:46;;;;;;;4.43;1.70;;;;;;;;;;5074835;28;26442;-55
2022/01/03 08:46:11;;;;;;;2.60;1.42;;;;;;;;;;5076376;28;24545;-55
2022/01/03 08:48:36;;;;;;;4.00;1.60;;;;;;;;;;5081774;28;24549;-55
2022/01/03 08:51:01;;;;;;;2.50;1.80;;;;;;;;;;5070187;28;24786;-55
2022/01/03 08:53:27;;;;;;;5.18;1.50;;;;;;;;;;5075122;28;24552;-56
2022/01/03 08:55:53;;;;;;;3.53;1.50;;;;;;;;;;5073405;28;24429;-55
2022/01/03 08:58:18;;;;;;;4.00;1.75;;;;;;;;;;5073281;28;24426;-56
2022/01/03 09:00:44;;;;;;;2.92;1.50;;;;;;;;;;5072933;28;24422;-55
2022/01/03 09:03:09;;;;;;;3.17;1.80;;;;;;;;;;5075705;28;24636;-56
2022/01/03 09:05:35;;;;;;;3.75;1.30;;;;;;;;;;5071682;28;24518;-56
2022/01/03 09:08:00;;;;;;;4.72;1.40;;;;;;;;;;5071029;28;25025;-55
2022/01/03 09:10:26;;;;;;;3.20;1.30;;;;;;;;;;5067014;28;24525;-55
2022/01/03 09:12:51;;;;;;;4.22;1.45;;;;;;;;;;5069977;28;24825;-55
2022/01/03 09:15:16;;;;;;;3.17;1.50;;;;;;;;;;5071619;28;24437;-55
2022/01/03 09:17:41;;;;;;;2.42;1.50;;;;;;;;;;5076554;28;24530;-56
2022/01/03 09:20:07;;;;;;;2.55;1.40;;;;;;;;;;5081475;28;24434;-56
2022/01/03 09:22:37;;;;;;;3.83;1.30;;;;;;;;;;5082614;28;24483;-56
2022/01/03 09:30:11;;;;;;;3.70;1.50;;;;;;;;;;5077501;28;24425;-55
2022/01/03 09:32:36;;;;;;;4.40;1.60;;;;;;;;;;5078940;28;24517;-56
2022/01/03 09:35:03;;;;;;;2.83;1.60;;;;;;;;;;5081024;28;24514;-56
2022/01/03 09:37:28;;;;;;;2.70;1.67;;;;;;;;;;5081184;28;24642;-55
2022/01/03 09:39:54;;;;;;;4.60;1.63;;;;;;;;;;5064737;28;24533;-56
2022/01/03 09:42:21;;;;;;;4.13;1.70;;;;;;;;;;5078881;28;24397;-56
2022/01/03 09:44:48;;;;;;;2.90;1.60;;;;;;;;;;5070849;28;24475;-56
2022/01/03 09:47:15;;;;;;;2.85;1.70;;;;;;;;;;5082802;28;24407;-56
2022/01/03 09:49:40;;;;;;;3.88;1.70;;;;;;;;;;5081049;28;25009;-55
2022/01/03 09:52:06;;;;;;;1.80;1.30;;;;;;;;;;5082038;28;24434;-56
2022/01/03 09:54:32;;;;;;;3.88;1.60;;;;;;;;;;5080780;28;24442;-56
2022/01/03 09:56:59;;;;;;;3.03;1.70;;;;;;;;;;5079538;28;24501;-56
2022/01/03 09:59:25;;;;;;;3.65;1.80;;;;;;;;;;5084259;28;24815;-56
2022/01/03 10:01:52;;;;;;;2.85;1.60;;;;;;;;;;5084136;28;24472;-56
2022/01/03 10:04:18;;;;;;;3.40;1.80;;;;;;;;;;5086263;28;24418;-55
2022/01/03 10:06:43;;;;;;;3.60;2.00;;;;;;;;;;5083712;28;24416;-57
2022/01/03 10:09:09;;;;;;;3.40;1.90;;;;;;;;;;5081587;28;24414;-56
2022/01/03 10:11:34;;;;;;;4.22;1.50;;;;;;;;;;5081312;28;24429;-56
2022/01/03 10:13:59;;;;;;;3.60;1.80;;;;;;;;;;5077516;28;24548;-56
2022/01/03 10:16:25;;;;;;;3.97;1.60;;;;;;;;;;5079445;28;25098;-56
2022/01/03 10:18:50;;;;;;;3.27;1.70;;;;;;;;;;5072205;28;24406;-55
2022/01/03 10:21:32;;;;;;;5.53;1.60;;;;;;;;;;5074734;28;24554;-55
2022/01/03 10:23:58;;;;;;;2.70;1.50;;;;;;;;;;5078430;28;24426;-56
2022/01/03 10:26:23;;;;;;;3.78;1.60;;;;;;;;;;5085750;28;24461;-56
2022/01/03 10:28:48;;;;;;;2.97;1.43;;;;;;;;;;5083251;28;24491;-56
2022/01/03 10:31:14;;;;;;;4.30;1.60;;;;;;;;;;5078522;28;24422;-56
2022/01/03 10:33:40;;;;;;;4.28;1.73;;;;;;;;;;5079262;28;24398;-56
2022/01/03 10:36:10;;;;;;;3.50;1.55;;;;;;;;;;5082682;28;24395;-56
2022/01/03 10:38:37;;;;;;;2.88;1.40;;;;;;;;;;5081650;28;24453;-56
2022/01/03 10:41:11;;;;;;;4.35;1.65;;;;;;;;;;5084796;28;24437;-55
2022/01/03 10:43:36;;;;;;;3.72;1.50;;;;;;;;;;5085034;28;24939;-55
2022/01/03 10:46:14;;;;;;;4.33;1.40;;;;;;;;;;5080424;28;24422;-55
2022/01/03 10:48:40;;;;;;;1.88;1.40;;;;;;;;;;5080146;28;24433;-55
2022/01/03 10:51:05;;;;;;;2.35;1.50;;;;;;;;;;5081090;28;24433;-55
2022/01/03 10:53:31;;;;;;;3.78;1.25;;;;;;;;;;5085883;28;25039;-55
2022/01/03 10:55:56;;;;;;;2.65;1.40;;;;;;;;;;5082107;28;24418;-55
2022/01/03 10:58:30;;;;;;;2.67;1.40;;;;;;;;;;5072696;28;24506;-55
2022/01/03 11:00:56;;;;;;;3.17;1.50;;;;;;;;;;5072483;28;24422;-56
2022/01/03 11:03:27;;;;;;;5.10;1.70;;;;;;;;;;5084286;28;24772;-56
2022/01/03 11:05:55;;;;;;;3.20;1.70;;;;;;;;;;5082479;28;24442;-56
2022/01/03 11:11:06;;;;;;;3.10;1.70;;;;;;;;;;5080802;28;24438;-55
2022/01/03 11:13:33;;;;;;;3.70;1.40;;;;;;;;;;5083410;28;24415;-56
2022/01/03 11:15:59;;;;;;;3.92;1.67;;;;;;;;;;5072870;28;25137;-55
2022/01/03 11:18:28;;;;;;;3.67;1.38;;;;;;;;;;5085029;28;24404;-56
2022/01/03 11:21:13;;;;;;;3.25;1.70;;;;;;;;;;5078388;28;24420;-55
2022/01/03 11:23:49;;;;;;;3.45;1.40;;;;;;;;;;5075713;28;24410;-57
2022/01/03 11:26:16;;;;;;;2.95;1.60;;;;;;;;;;5080113;28;24506;-55
2022/01/03 11:28:42;;;;;;;2.20;1.30;;;;;;;;;;5074289;28;24434;-56
2022/01/03 11:31:10;;;;;;;2.47;1.23;;;;;;;;;;5063278;28;24762;-56
2022/01/03 11:33:36;;;;;;;2.95;1.40;;;;;;;;;;5073706;28;24769;-55
2022/01/03 11:36:02;;;;;;;2.00;1.40;;;;;;;;;;5077509;28;24422;-56
2022/01/03 11:38:30;;;;;;;3.92;1.73;;;;;;;;;;5079456;28;24442;-57
2022/01/03 11:40:55;;;;;;;3.63;1.67;;;;;;;;;;5069181;28;24449;-56
2022/01/03 11:43:21;;;;;;;2.10;1.30;;;;;;;;;;5066557;28;24554;-56
2022/01/03 11:45:46;;;;;;;3.00;1.40;;;;;;;;;;5075209;28;24441;-55
2022/01/03 11:48:12;;;;;;;3.80;1.70;;;;;;;;;;5075859;28;24822;-56
2022/01/03 11:50:37;;;;;;;4.47;1.20;;;;;;;;;;5070312;28;24487;-56
2022/01/03 11:53:06;;;;;;;3.40;1.40;;;;;;;;;;5079189;28;24851;-56
2022/01/03 11:55:34;;;;;;;2.72;1.30;;;;;;;;;;5071256;28;25026;-55
2022/01/03 11:58:27;;;;;;;2.72;1.27;;;;;;;;;;5076111;28;24453;-56
2022/01/03 12:03:49;;;;;;;2.83;1.58;;;;;;;;;;5060973;28;24757;-56
2022/01/03 12:06:22;;;;;;;2.83;1.70;;;;;;;;;;5077823;28;24461;-57
2022/01/03 12:08:52;;;;;;;3.08;1.48;;;;;;;;;;5073954;28;24426;-56
2022/01/03 12:11:25;;;;;;;1.65;1.20;;;;;;;;;;5076762;28;24441;-55
2022/01/03 12:13:55;;;;;;;3.40;2.13;;;;;;;;;;5074812;28;24855;-56
2022/01/03 12:16:37;;;;;;;1.70;1.13;;;;;;;;;;5076936;28;24527;-55
2022/01/03 12:19:03;;;;;;;2.72;1.40;;;;;;;;;;5072540;28;24430;-55
2022/01/03 12:21:46;;;;;;;3.58;1.42;;;;;;;;;;5057971;28;24449;-54
2022/01/03 12:24:26;;;;;;;3.40;1.58;;;;;;;;;;5066175;28;24426;-55
2022/01/03 12:27:19;;;;;;;2.70;1.30;;;;;;;;;;5062841;28;24781;-56
2022/01/03 12:29:54;;;;;;;3.25;1.40;;;;;;;;;;5063954;28;24512;-55
2022/01/03 12:32:20;;;;;;;1.85;1.20;;;;;;;;;;5062259;28;24433;-56
2022/01/03 12:34:45;;;;;;;2.83;1.20;;;;;;;;;;5077345;28;24424;-55
2022/01/03 12:37:22;;;;;;;2.10;1.38;;;;;;;;;;5147984;27;21309;-57
2022/01/03 12:40:05;;;;;;;3.05;1.20;;;;;;;;;;5132555;27;24813;-55
2022/01/03 12:42:48;;;;;;;3.13;1.50;;;;;;;;;;5129715;27;24884;-55
2022/01/03 12:45:37;;;;;;;2.17;1.40;;;;;;;;;;5136050;27;24982;-55
2022/01/03 12:48:08;;;;;;;4.75;1.70;;;;;;;;;;5121990;27;25038;-54
2022/01/03 12:50:34;;;;;;;2.65;1.50;;;;;;;;;;5135617;27;24413;-54
2022/01/03 12:53:01;;;;;;;2.97;1.35;;;;;;;;;;5137552;27;24424;-55
2022/01/03 12:55:38;;;;;;;2.65;1.50;;;;;;;;;;5135145;27;24536;-54
2022/01/03 12:58:19;;;;;;;3.30;1.60;;;;;;;;;;5133899;27;25025;-55
2022/01/03 13:00:45;;;;;;;3.47;1.50;;;;;;;;;;5136458;27;24425;-55
2022/01/03 13:03:20;;;;;;;2.05;1.40;;;;;;;;;;5140153;27;24417;-55
2022/01/03 13:06:15;;;;;;;1.90;1.30;;;;;;;;;;5137902;27;24427;-55
2022/01/03 13:08:52;;;;;;;3.00;1.38;;;;;;;;;;5108487;28;24429;-55
2022/01/03 13:11:19;;;;;;;1.75;1.20;;;;;;;;;;5128784;27;24806;-55
2022/01/03 13:13:46;;;;;;;1.35;1.02;;;;;;;;;;5138116;27;24759;-55
2022/01/03 13:16:24;;;;;;;2.28;1.10;;;;;;;;;;5140184;27;24852;-55
2022/01/03 13:18:51;;;;;;;3.47;1.40;;;;;;;;;;5136760;27;24834;-56
2022/01/03 13:21:17;;;;;;;2.70;1.65;;;;;;;;;;5133872;27;24408;-55
2022/01/03 13:23:59;;;;;;;2.95;1.13;;;;;;;;;;5136782;27;24393;-56
2022/01/03 13:26:25;;;;;;;1.90;1.30;;;;;;;;;;5140396;27;24775;-55
2022/01/03 13:28:51;;;;;;;1.92;1.27;;;;;;;;;;5140256;27;24568;-56
2022/01/03 13:31:17;;;;;;;2.42;1.40;;;;;;;;;;5130166;27;24964;-55
2022/01/03 13:33:42;;;;;;;2.70;1.57;;;;;;;;;;5136251;27;24586;-56
2022/01/03 13:36:08;;;;;;;2.30;1.23;;;;;;;;;;5138749;27;24460;-56
2022/01/03 13:38:33;;;;;;;1.70;1.30;;;;;;;;;;5140151;27;24859;-56
2022/01/03 13:41:11;;;;;;;3.17;1.30;;;;;;;;;;5135808;27;24421;-56
2022/01/03 13:43:48;;;;;;;3.22;1.65;;;;;;;;;;5137396;27;24523;-55
2022/01/03 13:49:13;;;;;;;2.00;1.20;;;;;;;;;;5123586;27;24455;-56
2022/01/03 13:51:50;;;;;;;2.95;1.40;;;;;;;;;;5121554;27;24417;-56
2022/01/03 13:54:22;;;;;;;2.85;1.30;;;;;;;;;;5120642;27;24424;-57
2022/01/03 13:56:48;;;;;;;2.85;1.60;;;;;;;;;;5121909;27;24990;-56
2022/01/03 13:59:13;;;;;;;3.30;1.40;;;;;;;;;;5121517;27;24416;-57
2022/01/03 14:01:38;;;;;;;2.20;1.25;;;;;;;;;;5123732;27;25203;-56
2022/01/03 14:04:04;;;;;;;2.37;1.40;;;;;;;;;;5121035;27;24428;-56
2022/01/03 14:06:29;;;;;;;3.60;1.50;;;;;;;;;;5111753;27;24520;-55
2022/01/03 14:08:54;;;;;;;3.10;1.20;;;;;;;;;;5119497;27;24405;-56
2022/01/03 14:11:21;;;;;;;3.43;1.30;;;;;;;;;;5126425;27;25018;-56
2022/01/03 14:13:47;;;;;;;3.90;1.00;;;;;;;;;;5123780;27;24488;-55
2022/01/03 14:16:14;;;;;;;1.83;1.50;;;;;;;;;;5122150;27;24467;-56
2022/01/03 14:18:53;;;;;;;2.78;1.25;;;;;;;;;;5119559;27;24390;-56
2022/01/03 14:21:28;;;;;;;1.37;1.10;;;;;;;;;;5118974;27;24416;-57
2022/01/03 14:23:55;;;;;;;2.42;1.23;;;;;;;;;;5122908;27;24425;-57
2022/01/03 14:26:21;;;;;;;1.95;1.40;;;;;;;;;;5120515;27;24490;-56
2022/01/03 14:28:47;;;;;;;2.20;1.20;;;;;;;;;;5118643;27;24984;-56
2022/01/03 14:31:12;;;;;;;2.70;1.50;;;;;;;;;;5121003;27;24495;-55
2022/01/03 14:33:39;;;;;;;2.88;1.45;;;;;;;;;;5125058;27;24436;-55
2022/01/03 14:36:11;;;;;;;2.50;1.30;;;;;;;;;;5120792;27;24811;-56
2022/01/03 14:38:38;;;;;;;2.50;1.30;;;;;;;;;;5121209;27;24493;-55
2022/01/03 14:41:03;;;;;;;2.08;1.17;;;;;;;;;;5124176;27;24433;-55
2022/01/03 14:43:28;;;;;;;3.40;1.40;;;;;;;;;;5123201;27;24432;-56
2022/01/03 14:46:09;;;;;;;4.40;1.75;;;;;;;;;;5122933;27;24425;-55
2022/01/03 14:48:34;;;;;;;3.20;1.92;;;;;;;;;;5119124;27;24443;-55
2022/01/03 14:51:07;;;;;;;2.50;1.60;;;;;;;;;;5117495;27;24418;-60
2022/01/03 14:53:32;;;;;;;1.50;1.40;;;;;;;;;;5118762;27;24495;-55
2022/01/03 14:55:57;;;;;;;3.37;1.43;;;;;;;;;;5124029;27;24950;-57
2022/01/03 14:58:22;;;;;;;2.70;1.80;;;;;;;;;;5124353;27;24389;-55
2022/01/03 15:00:48;;;;;;;3.17;1.70;;;;;;;;;;5118138;27;24982;-56